sensor_id;sensor_type;location;lat;lon;timestamp;temperature;humidity
67777;DHT22;54576;52.020;5.536;2023-07-09T00:00:16;22.30;66.40
67777;DHT22;54576;52.020;5.536;2023-07-09T00:02:42;22.30;66.80
67777;DHT22;54576;52.020;5.536;2023-07-09T00:05:13;22.30;66.70
67777;DHT22;54576;52.020;5.536;2023-07-09T00:07:39;22.30;67.20
67777;DHT22;54576;52.020;5.536;2023-07-09T00:10:19;22.30;67.30
67777;DHT22;54576;52.020;5.536;2023-07-09T00:12:46;22.20;68.00
67777;DHT22;54576;52.020;5.536;2023-07-09T00:15:13;22.20;67.80
67777;DHT22;54576;52.020;5.536;2023-07-09T00:17:41;22.20;68.00
67777;DHT22;54576;52.020;5.536;2023-07-09T00:20:17;22.20;68.30
67777;DHT22;54576;52.020;5.536;2023-07-09T00:22:43;22.20;69.20
67777;DHT22;54576;52.020;5.536;2023-07-09T00:25:18;22.00;70.50
67777;DHT22;54576;52.020;5.536;2023-07-09T00:27:45;22.00;70.20
67777;DHT22;54576;52.020;5.536;2023-07-09T00:30:14;21.90;70.50
67777;DHT22;54576;52.020;5.536;2023-07-09T00:32:40;21.90;74.60
67777;DHT22;54576;52.020;5.536;2023-07-09T00:35:10;21.90;69.90
67777;DHT22;54576;52.020;5.536;2023-07-09T00:37:37;21.90;70.70
67777;DHT22;54576;52.020;5.536;2023-07-09T00:40:03;21.80;71.10
67777;DHT22;54576;52.020;5.536;2023-07-09T00:42:30;21.80;71.70
67777;DHT22;54576;52.020;5.536;2023-07-09T00:44:56;21.80;72.20
67777;DHT22;54576;52.020;5.536;2023-07-09T00:47:22;21.80;72.50
67777;DHT22;54576;52.020;5.536;2023-07-09T00:50:10;21.80;72.90
67777;DHT22;54576;52.020;5.536;2023-07-09T00:52:45;21.80;73.80
67777;DHT22;54576;52.020;5.536;2023-07-09T00:55:16;21.80;73.20
67777;DHT22;54576;52.020;5.536;2023-07-09T00:57:45;21.90;73.10
67777;DHT22;54576;52.020;5.536;2023-07-09T01:00:21;21.90;73.30
67777;DHT22;54576;52.020;5.536;2023-07-09T01:02:48;21.90;78.80
67777;DHT22;54576;52.020;5.536;2023-07-09T01:05:14;21.90;71.90
67777;DHT22;54576;52.020;5.536;2023-07-09T01:07:42;21.90;72.40
67777;DHT22;54576;52.020;5.536;2023-07-09T01:10:15;22.00;72.80
67777;DHT22;54576;52.020;5.536;2023-07-09T01:12:41;21.90;73.50
67777;DHT22;54576;52.020;5.536;2023-07-09T01:15:07;21.80;74.10
67777;DHT22;54576;52.020;5.536;2023-07-09T01:17:33;21.70;75.70
67777;DHT22;54576;52.020;5.536;2023-07-09T01:19:59;21.60;76.30
67777;DHT22;54576;52.020;5.536;2023-07-09T01:22:25;21.50;76.80
67777;DHT22;54576;52.020;5.536;2023-07-09T01:25:04;21.50;77.10
67777;DHT22;54576;52.020;5.536;2023-07-09T01:27:38;21.40;77.30
67777;DHT22;54576;52.020;5.536;2023-07-09T01:30:15;21.30;78.00
67777;DHT22;54576;52.020;5.536;2023-07-09T01:32:41;21.30;78.70
67777;DHT22;54576;52.020;5.536;2023-07-09T01:35:13;21.20;78.60
67777;DHT22;54576;52.020;5.536;2023-07-09T01:37:41;21.10;79.70
67777;DHT22;54576;52.020;5.536;2023-07-09T01:40:08;21.00;80.40
67777;DHT22;54576;52.020;5.536;2023-07-09T01:42:35;21.00;80.60
67777;DHT22;54576;52.020;5.536;2023-07-09T01:45:02;21.00;81.40
67777;DHT22;54576;52.020;5.536;2023-07-09T01:47:30;20.90;82.10
67777;DHT22;54576;52.020;5.536;2023-07-09T01:49:55;20.80;82.10
67777;DHT22;54576;52.020;5.536;2023-07-09T01:52:24;20.80;82.60
67777;DHT22;54576;52.020;5.536;2023-07-09T01:54:52;20.70;83.50
67777;DHT22;54576;52.020;5.536;2023-07-09T01:57:26;20.70;83.80
67777;DHT22;54576;52.020;5.536;2023-07-09T02:00:05;20.70;84.50
67777;DHT22;54576;52.020;5.536;2023-07-09T02:02:31;20.70;85.00
67777;DHT22;54576;52.020;5.536;2023-07-09T02:05:03;20.60;84.60
67777;DHT22;54576;52.020;5.536;2023-07-09T02:07:29;20.60;85.50
67777;DHT22;54576;52.020;5.536;2023-07-09T02:09:58;20.60;85.50
67777;DHT22;54576;52.020;5.536;2023-07-09T02:12:24;20.60;85.90
67777;DHT22;54576;52.020;5.536;2023-07-09T02:14:50;20.50;86.30
67777;DHT22;54576;52.020;5.536;2023-07-09T02:17:16;20.50;86.30
67777;DHT22;54576;52.020;5.536;2023-07-09T02:19:42;20.50;86.70
67777;DHT22;54576;52.020;5.536;2023-07-09T02:22:08;20.50;86.60
67777;DHT22;54576;52.020;5.536;2023-07-09T02:24:35;20.50;87.10
67777;DHT22;54576;52.020;5.536;2023-07-09T02:27:02;20.50;87.10
67777;DHT22;54576;52.020;5.536;2023-07-09T02:29:30;20.50;87.10
67777;DHT22;54576;52.020;5.536;2023-07-09T02:31:57;20.50;86.10
67777;DHT22;54576;52.020;5.536;2023-07-09T02:34:24;20.50;87.20
67777;DHT22;54576;52.020;5.536;2023-07-09T02:36:55;20.40;88.20
67777;DHT22;54576;52.020;5.536;2023-07-09T02:39:22;20.40;87.40
67777;DHT22;54576;52.020;5.536;2023-07-09T02:41:48;20.40;88.30
67777;DHT22;54576;52.020;5.536;2023-07-09T02:44:14;20.40;88.80
67777;DHT22;54576;52.020;5.536;2023-07-09T02:46:39;20.40;88.80
67777;DHT22;54576;52.020;5.536;2023-07-09T02:49:06;20.30;89.60
67777;DHT22;54576;52.020;5.536;2023-07-09T02:51:32;20.40;89.40
67777;DHT22;54576;52.020;5.536;2023-07-09T02:54:00;20.40;89.40
67777;DHT22;54576;52.020;5.536;2023-07-09T02:56:32;20.40;90.10
67777;DHT22;54576;52.020;5.536;2023-07-09T02:58:57;20.40;90.00
67777;DHT22;54576;52.020;5.536;2023-07-09T03:01:26;20.40;89.60
67777;DHT22;54576;52.020;5.536;2023-07-09T03:03:56;20.30;90.00
67777;DHT22;54576;52.020;5.536;2023-07-09T03:06:23;20.30;90.10
67777;DHT22;54576;52.020;5.536;2023-07-09T03:08:49;20.30;90.10
67777;DHT22;54576;52.020;5.536;2023-07-09T03:11:16;20.30;90.30
67777;DHT22;54576;52.020;5.536;2023-07-09T03:13:42;20.30;90.40
67777;DHT22;54576;52.020;5.536;2023-07-09T03:16:08;20.40;90.40
67777;DHT22;54576;52.020;5.536;2023-07-09T03:18:33;20.30;90.70
67777;DHT22;54576;52.020;5.536;2023-07-09T03:20:59;20.30;90.90
67777;DHT22;54576;52.020;5.536;2023-07-09T03:23:25;20.30;90.80
67777;DHT22;54576;52.020;5.536;2023-07-09T03:25:50;20.30;90.70
67777;DHT22;54576;52.020;5.536;2023-07-09T03:28:16;20.30;90.90
67777;DHT22;54576;52.020;5.536;2023-07-09T03:30:43;20.30;91.00
67777;DHT22;54576;52.020;5.536;2023-07-09T03:33:10;20.20;91.10
67777;DHT22;54576;52.020;5.536;2023-07-09T03:35:35;20.20;91.30
67777;DHT22;54576;52.020;5.536;2023-07-09T03:38:02;20.20;91.90
67777;DHT22;54576;52.020;5.536;2023-07-09T03:40:28;20.20;91.90
67777;DHT22;54576;52.020;5.536;2023-07-09T03:42:53;20.20;91.80
67777;DHT22;54576;52.020;5.536;2023-07-09T03:45:19;20.30;91.60
67777;DHT22;54576;52.020;5.536;2023-07-09T03:47:45;20.30;91.40
67777;DHT22;54576;52.020;5.536;2023-07-09T03:50:10;20.40;91.20
67777;DHT22;54576;52.020;5.536;2023-07-09T03:52:37;20.40;91.30
67777;DHT22;54576;52.020;5.536;2023-07-09T03:55:02;20.30;91.40
67777;DHT22;54576;52.020;5.536;2023-07-09T03:57:30;20.40;91.70
67777;DHT22;54576;52.020;5.536;2023-07-09T03:59:56;20.40;91.90
67777;DHT22;54576;52.020;5.536;2023-07-09T04:02:22;20.30;92.00
67777;DHT22;54576;52.020;5.536;2023-07-09T04:04:47;20.30;92.10
67777;DHT22;54576;52.020;5.536;2023-07-09T04:07:13;20.30;92.20
67777;DHT22;54576;52.020;5.536;2023-07-09T04:09:39;20.40;92.20
67777;DHT22;54576;52.020;5.536;2023-07-09T04:12:05;20.40;92.20
67777;DHT22;54576;52.020;5.536;2023-07-09T04:14:31;20.40;92.20
67777;DHT22;54576;52.020;5.536;2023-07-09T04:16:56;20.40;92.00
67777;DHT22;54576;52.020;5.536;2023-07-09T04:19:23;20.50;91.70
67777;DHT22;54576;52.020;5.536;2023-07-09T04:21:49;20.50;91.90
67777;DHT22;54576;52.020;5.536;2023-07-09T04:24:16;20.60;91.70
67777;DHT22;54576;52.020;5.536;2023-07-09T04:26:42;20.60;91.60
67777;DHT22;54576;52.020;5.536;2023-07-09T04:29:08;20.70;91.10
67777;DHT22;54576;52.020;5.536;2023-07-09T04:31:33;20.80;90.80
67777;DHT22;54576;52.020;5.536;2023-07-09T04:33:59;20.90;90.80
67777;DHT22;54576;52.020;5.536;2023-07-09T04:36:25;20.90;90.90
67777;DHT22;54576;52.020;5.536;2023-07-09T04:38:51;21.00;91.20
67777;DHT22;54576;52.020;5.536;2023-07-09T04:41:17;21.00;91.40
67777;DHT22;54576;52.020;5.536;2023-07-09T04:43:43;21.00;91.50
67777;DHT22;54576;52.020;5.536;2023-07-09T04:46:08;21.10;91.40
67777;DHT22;54576;52.020;5.536;2023-07-09T04:48:34;21.20;91.50
67777;DHT22;54576;52.020;5.536;2023-07-09T04:50:59;21.30;90.90
67777;DHT22;54576;52.020;5.536;2023-07-09T04:53:26;21.40;90.30
67777;DHT22;54576;52.020;5.536;2023-07-09T04:55:51;21.50;90.10
67777;DHT22;54576;52.020;5.536;2023-07-09T04:58:17;21.60;89.90
67777;DHT22;54576;52.020;5.536;2023-07-09T05:00:44;21.70;89.50
67777;DHT22;54576;52.020;5.536;2023-07-09T05:03:12;21.90;88.70
67777;DHT22;54576;52.020;5.536;2023-07-09T05:05:44;22.00;95.50
67777;DHT22;54576;52.020;5.536;2023-07-09T05:08:12;22.30;88.00
67777;DHT22;54576;52.020;5.536;2023-07-09T05:10:45;22.60;83.60
67777;DHT22;54576;52.020;5.536;2023-07-09T05:13:14;23.00;85.80
67777;DHT22;54576;52.020;5.536;2023-07-09T05:15:41;23.30;81.50
67777;DHT22;54576;52.020;5.536;2023-07-09T05:20:36;23.90;77.70
67777;DHT22;54576;52.020;5.536;2023-07-09T05:23:02;24.10;76.90
67777;DHT22;54576;52.020;5.536;2023-07-09T05:25:27;24.20;76.20
67777;DHT22;54576;52.020;5.536;2023-07-09T05:27:53;24.40;76.70
67777;DHT22;54576;52.020;5.536;2023-07-09T05:30:19;24.70;75.90
67777;DHT22;54576;52.020;5.536;2023-07-09T05:32:45;25.00;75.10
67777;DHT22;54576;52.020;5.536;2023-07-09T05:35:10;25.30;73.80
67777;DHT22;54576;52.020;5.536;2023-07-09T05:37:37;25.50;72.60
67777;DHT22;54576;52.020;5.536;2023-07-09T05:40:04;25.80;71.40
67777;DHT22;54576;52.020;5.536;2023-07-09T05:42:31;26.10;70.50
67777;DHT22;54576;52.020;5.536;2023-07-09T05:44:56;26.30;69.10
67777;DHT22;54576;52.020;5.536;2023-07-09T05:47:22;26.60;68.50
67777;DHT22;54576;52.020;5.536;2023-07-09T05:49:48;26.80;67.60
67777;DHT22;54576;52.020;5.536;2023-07-09T05:52:16;27.00;67.20
67777;DHT22;54576;52.020;5.536;2023-07-09T05:54:43;27.20;66.60
67777;DHT22;54576;52.020;5.536;2023-07-09T05:57:09;27.30;99.90
67777;DHT22;54576;52.020;5.536;2023-07-09T05:59:35;27.50;65.70
67777;DHT22;54576;52.020;5.536;2023-07-09T06:02:00;27.40;65.90
67777;DHT22;54576;52.020;5.536;2023-07-09T06:04:26;27.60;94.00
67777;DHT22;54576;52.020;5.536;2023-07-09T06:06:52;27.60;99.90
67777;DHT22;54576;52.020;5.536;2023-07-09T06:09:20;27.50;66.30
67777;DHT22;54576;52.020;5.536;2023-07-09T06:11:46;27.70;67.00
67777;DHT22;54576;52.020;5.536;2023-07-09T06:14:11;27.90;65.90
67777;DHT22;54576;52.020;5.536;2023-07-09T06:16:37;27.90;66.20
67777;DHT22;54576;52.020;5.536;2023-07-09T06:19:04;27.80;66.50
67777;DHT22;54576;52.020;5.536;2023-07-09T06:21:29;27.80;68.10
67777;DHT22;54576;52.020;5.536;2023-07-09T06:23:55;27.80;68.10
67777;DHT22;54576;52.020;5.536;2023-07-09T06:26:21;27.80;68.20
67777;DHT22;54576;52.020;5.536;2023-07-09T06:28:47;27.80;68.70
67777;DHT22;54576;52.020;5.536;2023-07-09T06:31:12;27.90;69.10
67777;DHT22;54576;52.020;5.536;2023-07-09T06:33:42;27.80;69.60
67777;DHT22;54576;52.020;5.536;2023-07-09T06:36:08;28.00;70.50
67777;DHT22;54576;52.020;5.536;2023-07-09T06:40:59;28.30;69.40
67777;DHT22;54576;52.020;5.536;2023-07-09T06:43:25;28.30;70.10
67777;DHT22;54576;52.020;5.536;2023-07-09T06:45:54;28.40;71.00
67777;DHT22;54576;52.020;5.536;2023-07-09T06:48:21;28.60;70.00
67777;DHT22;54576;52.020;5.536;2023-07-09T06:50:47;28.70;69.30
67777;DHT22;54576;52.020;5.536;2023-07-09T06:53:13;28.90;68.30
67777;DHT22;54576;52.020;5.536;2023-07-09T06:55:38;29.00;68.40
67777;DHT22;54576;52.020;5.536;2023-07-09T06:58:06;29.00;68.60
67777;DHT22;54576;52.020;5.536;2023-07-09T07:02:59;28.90;67.80
67777;DHT22;54576;52.020;5.536;2023-07-09T07:05:24;28.90;68.30
67777;DHT22;54576;52.020;5.536;2023-07-09T07:07:53;28.90;68.10
67777;DHT22;54576;52.020;5.536;2023-07-09T07:10:19;28.90;67.80
67777;DHT22;54576;52.020;5.536;2023-07-09T07:12:49;29.10;68.00
67777;DHT22;54576;52.020;5.536;2023-07-09T07:15:18;29.40;67.80
67777;DHT22;54576;52.020;5.536;2023-07-09T07:20:11;29.80;65.50
67777;DHT22;54576;52.020;5.536;2023-07-09T07:22:38;30.00;65.10
67777;DHT22;54576;52.020;5.536;2023-07-09T07:27:30;30.20;99.90
67777;DHT22;54576;52.020;5.536;2023-07-09T07:29:55;30.30;63.40
67777;DHT22;54576;52.020;5.536;2023-07-09T07:32:21;30.30;64.00
67777;DHT22;54576;52.020;5.536;2023-07-09T07:34:47;30.30;62.70
67777;DHT22;54576;52.020;5.536;2023-07-09T07:37:14;30.40;62.30
67777;DHT22;54576;52.020;5.536;2023-07-09T07:39:39;30.50;62.10
67777;DHT22;54576;52.020;5.536;2023-07-09T07:42:06;30.60;61.20
67777;DHT22;54576;52.020;5.536;2023-07-09T07:44:32;30.70;61.00
67777;DHT22;54576;52.020;5.536;2023-07-09T07:46:58;30.50;60.40
67777;DHT22;54576;52.020;5.536;2023-07-09T07:49:23;30.50;60.70
67777;DHT22;54576;52.020;5.536;2023-07-09T07:51:49;30.50;60.40
67777;DHT22;54576;52.020;5.536;2023-07-09T07:54:14;30.50;59.90
67777;DHT22;54576;52.020;5.536;2023-07-09T07:56:40;30.50;59.90
67777;DHT22;54576;52.020;5.536;2023-07-09T07:59:06;30.40;59.60
67777;DHT22;54576;52.020;5.536;2023-07-09T08:01:32;30.40;60.00
67777;DHT22;54576;52.020;5.536;2023-07-09T08:04:01;30.50;59.60
67777;DHT22;54576;52.020;5.536;2023-07-09T08:06:26;30.60;59.60
67777;DHT22;54576;52.020;5.536;2023-07-09T08:08:52;30.60;59.40
67777;DHT22;54576;52.020;5.536;2023-07-09T08:11:18;30.70;59.40
67777;DHT22;54576;52.020;5.536;2023-07-09T08:13:43;30.60;58.60
67777;DHT22;54576;52.020;5.536;2023-07-09T08:16:09;30.40;58.80
67777;DHT22;54576;52.020;5.536;2023-07-09T08:18:37;30.50;58.80
67777;DHT22;54576;52.020;5.536;2023-07-09T08:21:03;30.50;60.00
67777;DHT22;54576;52.020;5.536;2023-07-09T08:23:29;30.60;59.00
67777;DHT22;54576;52.020;5.536;2023-07-09T08:25:59;30.80;68.30
67777;DHT22;54576;52.020;5.536;2023-07-09T08:28:26;30.70;57.80
67777;DHT22;54576;52.020;5.536;2023-07-09T08:30:55;30.70;58.20
67777;DHT22;54576;52.020;5.536;2023-07-09T08:33:21;30.80;57.90
67777;DHT22;54576;52.020;5.536;2023-07-09T08:35:51;30.90;58.30
67777;DHT22;54576;52.020;5.536;2023-07-09T08:38:17;31.00;59.80
67777;DHT22;54576;52.020;5.536;2023-07-09T08:43:55;31.00;55.70
67777;DHT22;54576;52.020;5.536;2023-07-09T08:46:34;31.10;57.60
67777;DHT22;54576;52.020;5.536;2023-07-09T08:49:14;31.20;57.20
67777;DHT22;54576;52.020;5.536;2023-07-09T08:51:43;31.30;57.20
67777;DHT22;54576;52.020;5.536;2023-07-09T08:54:26;31.30;58.20
67777;DHT22;54576;52.020;5.536;2023-07-09T08:56:53;31.40;57.00
67777;DHT22;54576;52.020;5.536;2023-07-09T08:59:19;31.40;56.90
67777;DHT22;54576;52.020;5.536;2023-07-09T09:01:53;31.40;57.80
67777;DHT22;54576;52.020;5.536;2023-07-09T09:04:29;31.60;56.40
67777;DHT22;54576;52.020;5.536;2023-07-09T09:07:13;31.60;56.00
67777;DHT22;54576;52.020;5.536;2023-07-09T09:09:48;31.60;55.80
67777;DHT22;54576;52.020;5.536;2023-07-09T09:12:51;31.60;57.00
67777;DHT22;54576;52.020;5.536;2023-07-09T09:15:20;31.80;56.30
67777;DHT22;54576;52.020;5.536;2023-07-09T09:17:51;32.00;55.30
67777;DHT22;54576;52.020;5.536;2023-07-09T09:20:21;32.00;56.00
67777;DHT22;54576;52.020;5.536;2023-07-09T09:25:42;32.20;52.20
67777;DHT22;54576;52.020;5.536;2023-07-09T09:28:09;32.20;55.30
67777;DHT22;54576;52.020;5.536;2023-07-09T09:30:35;32.20;55.20
67777;DHT22;54576;52.020;5.536;2023-07-09T09:35:36;32.30;53.40
67777;DHT22;54576;52.020;5.536;2023-07-09T09:38:08;32.40;54.60
67777;DHT22;54576;52.020;5.536;2023-07-09T09:43:02;32.50;53.70
67777;DHT22;54576;52.020;5.536;2023-07-09T09:45:39;32.60;54.30
67777;DHT22;54576;52.020;5.536;2023-07-09T09:48:17;32.60;53.70
67777;DHT22;54576;52.020;5.536;2023-07-09T09:50:44;32.70;52.20
67777;DHT22;54576;52.020;5.536;2023-07-09T09:53:21;32.70;53.30
67777;DHT22;54576;52.020;5.536;2023-07-09T09:55:48;32.70;53.30
67777;DHT22;54576;52.020;5.536;2023-07-09T09:58:16;32.90;53.20
67777;DHT22;54576;52.020;5.536;2023-07-09T10:00:49;32.80;53.10
67777;DHT22;54576;52.020;5.536;2023-07-09T10:03:15;32.70;52.80
67777;DHT22;54576;52.020;5.536;2023-07-09T10:05:52;32.80;53.50
67777;DHT22;54576;52.020;5.536;2023-07-09T10:08:41;32.90;53.00
67777;DHT22;54576;52.020;5.536;2023-07-09T10:14:19;33.10;49.30
67777;DHT22;54576;52.020;5.536;2023-07-09T10:22:20;33.20;49.80
67777;DHT22;54576;52.020;5.536;2023-07-09T10:35:57;33.30;49.90
67777;DHT22;54576;52.020;5.536;2023-07-09T10:38:42;33.40;51.30
67777;DHT22;54576;52.020;5.536;2023-07-09T10:41:12;33.40;49.70
67777;DHT22;54576;52.020;5.536;2023-07-09T10:46:38;33.70;49.90
67777;DHT22;54576;52.020;5.536;2023-07-09T10:49:05;33.70;49.90
67777;DHT22;54576;52.020;5.536;2023-07-09T10:51:38;33.80;50.60
67777;DHT22;54576;52.020;5.536;2023-07-09T10:56:35;33.90;50.00
67777;DHT22;54576;52.020;5.536;2023-07-09T10:59:03;33.90;50.00
67777;DHT22;54576;52.020;5.536;2023-07-09T11:04:05;33.90;48.40
67777;DHT22;54576;52.020;5.536;2023-07-09T11:06:33;33.90;50.00
67777;DHT22;54576;52.020;5.536;2023-07-09T11:09:00;34.00;50.00
67777;DHT22;54576;52.020;5.536;2023-07-09T11:11:47;34.10;49.70
67777;DHT22;54576;52.020;5.536;2023-07-09T11:14:34;34.30;47.60
67777;DHT22;54576;52.020;5.536;2023-07-09T11:17:01;34.20;48.40
67777;DHT22;54576;52.020;5.536;2023-07-09T11:19:27;34.10;46.40
67777;DHT22;54576;52.020;5.536;2023-07-09T11:22:06;34.20;49.30
67777;DHT22;54576;52.020;5.536;2023-07-09T11:25:14;34.20;47.10
67777;DHT22;54576;52.020;5.536;2023-07-09T11:28:16;34.20;47.20
67777;DHT22;54576;52.020;5.536;2023-07-09T11:30:47;34.20;46.40
67777;DHT22;54576;52.020;5.536;2023-07-09T11:33:25;34.20;48.80
67777;DHT22;54576;52.020;5.536;2023-07-09T11:36:10;34.00;47.80
67777;DHT22;54576;52.020;5.536;2023-07-09T11:38:46;33.90;47.10
67777;DHT22;54576;52.020;5.536;2023-07-09T11:41:37;33.90;48.40
67777;DHT22;54576;52.020;5.536;2023-07-09T11:44:25;34.10;47.70
67777;DHT22;54576;52.020;5.536;2023-07-09T11:46:57;34.20;46.40
67777;DHT22;54576;52.020;5.536;2023-07-09T11:49:27;34.30;71.00
67777;DHT22;54576;52.020;5.536;2023-07-09T11:52:01;34.30;49.00
67777;DHT22;54576;52.020;5.536;2023-07-09T11:54:27;34.40;48.60
67777;DHT22;54576;52.020;5.536;2023-07-09T11:56:55;34.50;48.80
67777;DHT22;54576;52.020;5.536;2023-07-09T11:59:21;34.60;48.50
67777;DHT22;54576;52.020;5.536;2023-07-09T12:01:47;34.70;76.30
67777;DHT22;54576;52.020;5.536;2023-07-09T12:06:46;34.70;47.20
67777;DHT22;54576;52.020;5.536;2023-07-09T12:09:24;34.70;48.50
67777;DHT22;54576;52.020;5.536;2023-07-09T12:11:50;34.70;47.80
67777;DHT22;54576;52.020;5.536;2023-07-09T12:14:19;34.70;48.70
67777;DHT22;54576;52.020;5.536;2023-07-09T12:16:50;34.70;48.50
67777;DHT22;54576;52.020;5.536;2023-07-09T12:19:21;34.70;48.80
67777;DHT22;54576;52.020;5.536;2023-07-09T12:21:50;34.70;48.40
67777;DHT22;54576;52.020;5.536;2023-07-09T12:24:22;34.70;48.80
67777;DHT22;54576;52.020;5.536;2023-07-09T12:34:13;34.60;47.70
67777;DHT22;54576;52.020;5.536;2023-07-09T12:36:43;34.70;48.10
67777;DHT22;54576;52.020;5.536;2023-07-09T12:39:11;34.60;48.30
67777;DHT22;54576;52.020;5.536;2023-07-09T12:41:42;34.50;48.30
67777;DHT22;54576;52.020;5.536;2023-07-09T12:46:44;34.40;96.40
67777;DHT22;54576;52.020;5.536;2023-07-09T12:49:20;34.50;49.30
67777;DHT22;54576;52.020;5.536;2023-07-09T12:54:17;34.60;62.60
67777;DHT22;54576;52.020;5.536;2023-07-09T12:56:49;34.60;48.50
67777;DHT22;54576;52.020;5.536;2023-07-09T13:16:46;33.80;49.40
67777;DHT22;54576;52.020;5.536;2023-07-09T13:19:11;33.40;49.60
67777;DHT22;54576;52.020;5.536;2023-07-09T13:21:38;33.00;50.10
67777;DHT22;54576;52.020;5.536;2023-07-09T13:24:22;32.70;50.20
67777;DHT22;54576;52.020;5.536;2023-07-09T13:36:42;32.00;98.00
67777;DHT22;54576;52.020;5.536;2023-07-09T13:39:10;31.90;76.20
67777;DHT22;54576;52.020;5.536;2023-07-09T13:41:36;31.70;54.60
67777;DHT22;54576;52.020;5.536;2023-07-09T13:46:36;31.30;80.60
67777;DHT22;54576;52.020;5.536;2023-07-09T13:49:02;31.00;50.40
67777;DHT22;54576;52.020;5.536;2023-07-09T13:51:28;30.90;50.60
67777;DHT22;54576;52.020;5.536;2023-07-09T13:53:55;30.80;50.70
67777;DHT22;54576;52.020;5.536;2023-07-09T13:56:23;30.80;50.80
67777;DHT22;54576;52.020;5.536;2023-07-09T13:58:50;30.70;50.90
67777;DHT22;54576;52.020;5.536;2023-07-09T14:01:21;30.70;50.90
67777;DHT22;54576;52.020;5.536;2023-07-09T14:03:47;30.60;50.90
67777;DHT22;54576;52.020;5.536;2023-07-09T14:08:40;30.40;89.30
67777;DHT22;54576;52.020;5.536;2023-07-09T14:11:14;30.10;51.00
67777;DHT22;54576;52.020;5.536;2023-07-09T14:26:03;29.00;99.70
67777;DHT22;54576;52.020;5.536;2023-07-09T14:30:55;29.00;99.00
67777;DHT22;54576;52.020;5.536;2023-07-09T14:33:21;28.70;51.90
67777;DHT22;54576;52.020;5.536;2023-07-09T14:35:48;28.60;51.70
67777;DHT22;54576;52.020;5.536;2023-07-09T14:38:21;28.50;51.70
67777;DHT22;54576;52.020;5.536;2023-07-09T14:40:48;28.40;52.80
67777;DHT22;54576;52.020;5.536;2023-07-09T14:43:14;28.20;52.70
67777;DHT22;54576;52.020;5.536;2023-07-09T14:45:40;28.00;53.40
67777;DHT22;54576;52.020;5.536;2023-07-09T14:48:14;27.70;55.20
67777;DHT22;54576;52.020;5.536;2023-07-09T14:50:40;27.50;57.50
67777;DHT22;54576;52.020;5.536;2023-07-09T14:53:26;26.80;57.70
67777;DHT22;54576;52.020;5.536;2023-07-09T14:55:55;26.30;64.70
67777;DHT22;54576;52.020;5.536;2023-07-09T14:58:23;25.60;80.00
67777;DHT22;54576;52.020;5.536;2023-07-09T15:00:49;25.00;70.20
67777;DHT22;54576;52.020;5.536;2023-07-09T15:03:23;24.60;73.10
67777;DHT22;54576;52.020;5.536;2023-07-09T15:05:49;24.40;80.10
67777;DHT22;54576;52.020;5.536;2023-07-09T15:08:19;24.20;76.50
67777;DHT22;54576;52.020;5.536;2023-07-09T15:10:47;24.20;78.20
67777;DHT22;54576;52.020;5.536;2023-07-09T15:13:30;24.20;81.00
67777;DHT22;54576;52.020;5.536;2023-07-09T15:15:57;24.20;98.30
67777;DHT22;54576;52.020;5.536;2023-07-09T15:18:23;24.20;76.80
67777;DHT22;54576;52.020;5.536;2023-07-09T15:20:55;24.20;77.40
67777;DHT22;54576;52.020;5.536;2023-07-09T15:23:22;24.30;82.10
67777;DHT22;54576;52.020;5.536;2023-07-09T15:25:48;24.30;77.80
67777;DHT22;54576;52.020;5.536;2023-07-09T15:28:14;24.30;79.30
67777;DHT22;54576;52.020;5.536;2023-07-09T15:30:40;24.30;79.80
67777;DHT22;54576;52.020;5.536;2023-07-09T15:33:13;24.40;79.10
67777;DHT22;54576;52.020;5.536;2023-07-09T15:35:41;24.50;80.90
67777;DHT22;54576;52.020;5.536;2023-07-09T15:40:42;24.50;81.80
67777;DHT22;54576;52.020;5.536;2023-07-09T15:43:08;24.50;99.90
67777;DHT22;54576;52.020;5.536;2023-07-09T15:45:40;24.50;78.40
67777;DHT22;54576;52.020;5.536;2023-07-09T15:48:06;24.50;79.00
67777;DHT22;54576;52.020;5.536;2023-07-09T15:50:33;24.50;77.20
67777;DHT22;54576;52.020;5.536;2023-07-09T15:52:59;24.60;93.50
67777;DHT22;54576;52.020;5.536;2023-07-09T15:55:26;24.50;78.00
67777;DHT22;54576;52.020;5.536;2023-07-09T15:57:54;24.50;78.20
67777;DHT22;54576;52.020;5.536;2023-07-09T16:00:23;24.40;79.80
67777;DHT22;54576;52.020;5.536;2023-07-09T16:02:50;24.30;82.50
67777;DHT22;54576;52.020;5.536;2023-07-09T16:05:18;24.20;82.30
67777;DHT22;54576;52.020;5.536;2023-07-09T16:07:44;24.10;83.20
67777;DHT22;54576;52.020;5.536;2023-07-09T16:10:09;24.10;82.30
67777;DHT22;54576;52.020;5.536;2023-07-09T16:12:35;24.10;84.70
67777;DHT22;54576;52.020;5.536;2023-07-09T16:15:00;24.30;85.40
67777;DHT22;54576;52.020;5.536;2023-07-09T16:17:26;24.50;96.30
67777;DHT22;54576;52.020;5.536;2023-07-09T16:19:52;24.50;95.00
67777;DHT22;54576;52.020;5.536;2023-07-09T16:22:19;24.50;85.10
67777;DHT22;54576;52.020;5.536;2023-07-09T16:24:45;24.60;84.10
67777;DHT22;54576;52.020;5.536;2023-07-09T16:27:12;24.70;81.90
67777;DHT22;54576;52.020;5.536;2023-07-09T16:29:40;24.70;91.10
67777;DHT22;54576;52.020;5.536;2023-07-09T16:32:06;24.70;96.60
67777;DHT22;54576;52.020;5.536;2023-07-09T16:34:32;24.60;98.80
67777;DHT22;54576;52.020;5.536;2023-07-09T16:36:58;24.60;97.30
67777;DHT22;54576;52.020;5.536;2023-07-09T16:41:54;24.50;99.90
67777;DHT22;54576;52.020;5.536;2023-07-09T16:44:21;24.90;81.10
67777;DHT22;54576;52.020;5.536;2023-07-09T16:46:48;25.20;80.00
67777;DHT22;54576;52.020;5.536;2023-07-09T16:49:38;25.40;80.50
67777;DHT22;54576;52.020;5.536;2023-07-09T16:52:21;25.40;87.20
67777;DHT22;54576;52.020;5.536;2023-07-09T16:54:48;25.40;92.10
67777;DHT22;54576;52.020;5.536;2023-07-09T16:57:15;25.30;78.50
67777;DHT22;54576;52.020;5.536;2023-07-09T16:59:42;25.20;78.70
67777;DHT22;54576;52.020;5.536;2023-07-09T17:02:34;25.20;78.60
67777;DHT22;54576;52.020;5.536;2023-07-09T17:05:02;25.30;95.10
67777;DHT22;54576;52.020;5.536;2023-07-09T17:07:32;25.30;79.90
67777;DHT22;54576;52.020;5.536;2023-07-09T17:09:58;25.40;79.10
67777;DHT22;54576;52.020;5.536;2023-07-09T17:12:24;25.30;79.20
67777;DHT22;54576;52.020;5.536;2023-07-09T17:14:49;25.60;99.90
67777;DHT22;54576;52.020;5.536;2023-07-09T17:17:18;25.50;78.30
67777;DHT22;54576;52.020;5.536;2023-07-09T17:19:45;25.40;78.80
67777;DHT22;54576;52.020;5.536;2023-07-09T17:24:39;25.40;79.00
67777;DHT22;54576;52.020;5.536;2023-07-09T17:29:31;25.00;97.00
67777;DHT22;54576;52.020;5.536;2023-07-09T17:31:57;25.10;79.70
67777;DHT22;54576;52.020;5.536;2023-07-09T17:34:22;25.00;80.70
67777;DHT22;54576;52.020;5.536;2023-07-09T17:36:48;24.90;79.70
67777;DHT22;54576;52.020;5.536;2023-07-09T17:39:22;24.90;80.40
67777;DHT22;54576;52.020;5.536;2023-07-09T17:41:49;24.90;84.90